MGGT/GUA METAR and TAF weather

Enter ICAO airport designator
Station Type Date Time Source
MGGT METAR 2021/09/24 02:00 UTC NOAA

MGGT 240200Z 03012KT 9999 FEW016 20/17 Q1021 A3015 FEW080


Station Type Date Time Source
MGGT Decoded METAR 2021/09/24 02:00 UTC NOAA

Guatemala Aeropuertola Aurora , Guatemala (MGGT) 14-35N 090-31W 1489M
Sep 23, 2021 - 10:00 PM EDT / 2021.09.24 0200 UTC
Wind: from the NNE (030 degrees) at 14 MPH (12 KT):0
Visibility: greater than 7 mile(s):0
Sky conditions: mostly clear
Temperature: 68 F (20 C)
Dew Point: 62 F (17 C)
Relative Humidity: 82%
Pressure (altimeter): 30.15 in. Hg (1020 hPa)
ob: MGGT 240200Z 03012KT 9999 FEW016 20/17 Q1021 A3015 FEW080
cycle: 2

Station Type Date Time Source
MGGT TAF 2021/09/23 18:30 UTC NOAA

TAF MGGT 231700Z 2318/2418 36010KT 9999 SCT018 TX26/2320Z TN16/2412Z
TEMPO 2321/2404 8000 TSRA SCT020 FEW025CB
BECMG 2404/2406 SCT016
TEMPO 2406/2413 FEW016
BECMG 2415/2417 SCT018

Example: see airport list